Sydney, Canada
Current Conditions -  °F | °C
As of 5:27 AM on Thursday 18 Dec 2014 (Local Time) from CYQY Reporting Station
Rain Showers Rain Showers  
Wind Chill: 32°   Ceiling: 400
Heat Index: 41°   Visibility: 4mi
Dew Point: 39°   Wind: 21mph
Humidity: 93%   Direction: 120°ESE
Pressure: 29.58"   Gusts: 36mph
Location:  46.14°N, 60.2°W
Report Text: CYQY 180927Z 12018G31KT 4SM -SHRA BR OVC004 05/04 A2958 RMK ST8 PRESFR SLP019
Loading
Personal Weather Stations






























Interactive Weather Map New forecast layout! Learn more

10-Day Weather Forecast

Advertisements
Track Severe Weather on mobile